East New Market, Maryland
Current Conditions -  °F | °C
As of 7:28 AM on Wednesday 26 Nov 2014 (Local Time) from KCGE Reporting Station
Overcast Overcast  
Wind Chill: 41°   Ceiling: 900
Heat Index: 45°   Visibility: 3mi
Dew Point: 41°   Wind: 7mph
Humidity: 87%   Direction: 30°NNE
Pressure: 30.04"   Gusts: NA
Location:  38.6°N, 75.93°W
Report Text: KCGE 261228Z AUTO 03006KT 3SM OVC009 07/05 A3004 RMK AO1
Loading
Personal Weather Stations






























Interactive Weather Map New forecast layout! Learn more

10-Day Weather Forecast

Advertisements
Track Severe Weather on mobile